Aérodrome :
LOGIN :

S'inscrire | Disclaimer

   EN    FR    IT 

 










Légende :    VFR   VFR Marginal   IFR   IFR Intensif   IFR Très Intensif
Visi : 
Plafond : 
>= 8 km
>= 3000ft
5 à 8 km
1000 à 3000 ft
1500m à 5 km
500 à 1000 ft
800 à 1500m
200 à 500 ft
< 800m
< 200 ft
Symboles :   Orages  Brouillard  Fortes neiges  Fortes précipitations  Vent > 20 kt
SIGMETs :   Divers  Orages  Givrage  Turbulence  Onde Orograph.  Cendres Volcan.







- Altitude de l'aérodrome : 863 ft
- Code IATA : ZAZ


LEZG - Zaragoza Aragon

DERNIER METAR :
  • 280630Z 26005KT 230V290 9999 FEW050 19/14 Q1008

METARs EXPIRÉS :
  • 280600Z 28008KT 9999 SCT040 BKN060 18/15 Q1008
  • 280530Z 27009KT 9999 SCT044 BKN065 18/15 Q1009
  • 280500Z 27008KT 9999 SCT046 BKN070 18/15 Q1008
  • 280430Z 29010KT 260V320 9999 SCT046 BKN075 18/15 Q1009
  • 280400Z 29008KT 9999 FEW050 SCT070 18/15 Q1009

TAF TAF LEZG
Valide du 28 à 06h jusqu'au 29 à 06h UTC


280500Z 2806/2906 29010KT 9999 FEW040 TX26/2814Z TN17/2806Z
BECMG 2810/2812 28017G35KT
PROB40
TEMPO 2817/2821 3000 TSRA BKN015 FEW050CB
BECMG 2820/2822 30008KT SCT040
Pas de NOTAMs connus pour ce terrain.
1 SIGMET publié pour la FIR Madrid (LECM) :
 
Turbulence forte
LECM SIGMET 1 VALID 280300/280700 LEVA
LECM MADRID FIR/UIR SEV TURB FCST WI N45 W00850 - N4240 W00530 - N42 W00640 - N4350 W01250 - N45 W013 FL210/220260 MOV ENE NC=



MET'MAP, la Météo Aéronautique d'un coup d'oeil ! - Copyright ORBIFLY Décembre 2007 - Disclaimer

ORBIFLY MET'MAP TEAM :

Programmation & Développement : Alexandra Zaïnal
Conception & Développement : Baudouin d'Aumeries
Co-Programmation & Développement : Marc-Olivier Méhu
Soutien technique & logistique : Manuel Goepfert

Contact : metmap@orbifly.com




SOURCES & CREDITS :

   NOAA